createdAt,value
2017-11-25T00:00:14.621Z,933.7
2017-11-25T00:01:18.073Z,933.7
2017-11-25T00:02:20.379Z,933.7
2017-11-25T00:03:22.886Z,933.7
2017-11-25T00:04:25.143Z,933.7
2017-11-25T00:05:27.500Z,933.6
2017-11-25T00:06:29.742Z,934.5
2017-11-25T00:07:32.056Z,933.6
2017-11-25T00:08:34.973Z,933.7
2017-11-25T00:09:38.630Z,933.7
2017-11-25T00:10:40.854Z,933.6
2017-11-25T00:11:43.187Z,933.7
2017-11-25T00:12:46.157Z,933.6
2017-11-25T00:13:48.459Z,933.5
2017-11-25T00:14:50.826Z,933.6
2017-11-25T00:15:54.736Z,934.4
2017-11-25T00:16:57.907Z,933.6
2017-11-25T00:18:00.180Z,933.5
2017-11-25T00:19:02.552Z,934.4
2017-11-25T00:20:07.306Z,933.4
2017-11-25T00:21:09.594Z,933.3
2017-11-25T00:22:13.159Z,933.3
2017-11-25T00:23:15.466Z,933.3
2017-11-25T00:24:17.787Z,933.4
2017-11-25T00:25:22.125Z,933.3
2017-11-25T00:26:25.033Z,934.2
2017-11-25T00:27:27.438Z,933.3
2017-11-25T00:28:30.752Z,933.3
2017-11-25T00:29:33.775Z,933.3
2017-11-25T00:30:38.059Z,933.3
2017-11-25T00:31:41.043Z,934.2
2017-11-25T00:32:43.354Z,933.3
2017-11-25T00:33:45.707Z,933.7
2017-11-25T00:34:48.014Z,933.3
2017-11-25T00:35:50.339Z,933.3
2017-11-25T00:36:52.604Z,933.3
2017-11-25T00:37:54.935Z,933.3
2017-11-25T00:38:57.569Z,933.2
2017-11-25T00:39:59.822Z,933.2
2017-11-25T00:41:03.687Z,933.2
2017-11-25T00:42:06.096Z,933.2
2017-11-25T00:43:08.486Z,933.1
2017-11-25T00:44:10.812Z,933.1
2017-11-25T00:45:13.211Z,933.1
2017-11-25T00:46:15.521Z,933
2017-11-25T00:47:17.844Z,933.8
2017-11-25T00:48:20.164Z,932.9
2017-11-25T00:49:22.600Z,932.8
2017-11-25T00:50:25.026Z,931.8
2017-11-25T00:51:28.862Z,933.6
2017-11-25T00:52:31.161Z,932.7
2017-11-25T00:53:33.452Z,932.6
2017-11-25T00:54:35.819Z,932.6
2017-11-25T00:55:38.702Z,932.6
2017-11-25T00:56:41.051Z,932.6
2017-11-25T00:57:43.412Z,932.5
2017-11-25T00:58:45.728Z,932.5
2017-11-25T00:59:48.034Z,932.5
2017-11-25T01:00:50.388Z,932.4
2017-11-25T01:01:55.097Z,932.4
2017-11-25T01:02:57.981Z,932.5
2017-11-25T01:04:00.280Z,933.2
2017-11-25T01:05:02.835Z,932.4
2017-11-25T01:06:05.135Z,931.7
2017-11-25T01:07:08.168Z,933.2
2017-11-25T01:08:10.421Z,932.4
2017-11-25T01:09:12.757Z,932.3
2017-11-25T01:10:15.281Z,932.3
2017-11-25T01:11:18.289Z,932.3
2017-11-25T01:12:24.026Z,932.3
2017-11-25T01:13:28.550Z,932.2
2017-11-25T01:14:32.587Z,932.1
2017-11-25T01:15:35.671Z,932.2
2017-11-25T01:16:39.699Z,932.2
2017-11-25T01:17:42.069Z,932.2
2017-11-25T01:18:46.332Z,932.6
2017-11-25T01:19:48.622Z,932.2
2017-11-25T01:20:50.983Z,932.2
2017-11-25T01:21:54.193Z,932.3
2017-11-25T01:22:59.643Z,932.2
2017-11-25T01:24:01.983Z,932.3
2017-11-25T01:25:04.371Z,932.2
2017-11-25T01:26:06.814Z,932.2
2017-11-25T01:27:09.120Z,932.2
2017-11-25T01:28:12.091Z,932.2
2017-11-25T01:29:15.009Z,932.1
2017-11-25T01:30:17.912Z,932.2
2017-11-25T01:31:20.260Z,932.2
2017-11-25T01:32:22.556Z,932.2
2017-11-25T01:33:27.025Z,933
2017-11-25T01:34:30.473Z,932.9
2017-11-25T01:35:32.828Z,932.1
2017-11-25T01:36:35.672Z,932.1
2017-11-25T01:37:37.955Z,932
2017-11-25T01:38:40.248Z,932.9
2017-11-25T01:39:42.613Z,932.1
2017-11-25T01:40:46.905Z,932
2017-11-25T01:41:49.290Z,932
2017-11-25T01:42:52.601Z,932
2017-11-25T01:43:56.956Z,932
2017-11-25T01:44:59.193Z,932
2017-11-25T01:46:01.210Z,931.9
2017-11-25T01:47:04.142Z,932.4
2017-11-25T01:48:07.726Z,931.9
2017-11-25T01:49:09.953Z,931.9
2017-11-25T01:50:12.896Z,931.9
2017-11-25T01:51:15.230Z,931.8
2017-11-25T01:52:18.523Z,932.7
2017-11-25T01:53:22.194Z,931.6
2017-11-25T01:54:25.871Z,931.7
2017-11-25T01:55:28.167Z,931.6
2017-11-25T01:56:31.871Z,932.5
2017-11-25T01:57:34.755Z,931.7
2017-11-25T01:58:37.142Z,931.6
2017-11-25T01:59:40.146Z,931.7
2017-11-25T02:00:42.982Z,931.6
2017-11-25T02:01:46.001Z,931.7
2017-11-25T02:02:48.352Z,931.6
2017-11-25T02:03:50.751Z,931.6
2017-11-25T02:04:54.876Z,932.4
2017-11-25T02:05:57.173Z,931.6
2017-11-25T02:06:59.470Z,931.6
2017-11-25T02:08:02.132Z,931.6
2017-11-25T02:09:04.940Z,931.6
2017-11-25T02:10:07.185Z,931.6
2017-11-25T02:11:10.173Z,931.7
2017-11-25T02:12:12.596Z,931.7
2017-11-25T02:13:14.881Z,931.6
2017-11-25T02:14:17.222Z,931.7
2017-11-25T02:15:21.573Z,931.7
2017-11-25T02:16:23.894Z,931.7
2017-11-25T02:17:26.237Z,932.5
2017-11-25T02:18:28.605Z,932.6
2017-11-25T02:19:30.919Z,931.7
2017-11-25T02:20:33.194Z,932.6
2017-11-25T02:21:37.199Z,931.7
2017-11-25T02:22:39.474Z,931.7
2017-11-25T02:23:42.536Z,931.6
2017-11-25T02:24:44.829Z,931.5
2017-11-25T02:25:49.913Z,932.4
2017-11-25T02:26:52.206Z,932.4
2017-11-25T02:27:54.584Z,931.5
2017-11-25T02:28:58.778Z,932.5
2017-11-25T02:30:01.129Z,931.6
2017-11-25T02:31:03.575Z,931.6
2017-11-25T02:32:05.943Z,931.6
2017-11-25T02:33:08.280Z,931.6
2017-11-25T02:34:11.448Z,931.6
2017-11-25T02:35:13.733Z,931.7
2017-11-25T02:36:17.723Z,931.5
2017-11-25T02:37:20.071Z,931.5
2017-11-25T02:38:23.697Z,931.5
2017-11-25T02:39:25.982Z,932.4
2017-11-25T02:40:31.354Z,931.4
2017-11-25T02:41:35.298Z,931.5
2017-11-25T02:42:37.682Z,931.5
2017-11-25T02:43:40.093Z,931.4
2017-11-25T02:44:42.422Z,931.4
2017-11-25T02:45:46.719Z,932.3
2017-11-25T02:46:52.460Z,931.8
2017-11-25T02:47:55.222Z,931.4
2017-11-25T02:48:58.049Z,931.4
2017-11-25T02:50:01.116Z,931.4
2017-11-25T02:51:03.397Z,932.2
2017-11-25T02:52:07.180Z,931.3
2017-11-25T02:53:09.509Z,931.3
2017-11-25T02:54:12.293Z,931.3
2017-11-25T02:55:14.552Z,931.2
2017-11-25T02:56:16.862Z,931.3
2017-11-25T02:57:23.605Z,931.2
2017-11-25T02:58:25.974Z,931.2
2017-11-25T02:59:28.295Z,931.2
2017-11-25T03:00:30.604Z,931.2
2017-11-25T03:01:32.883Z,931.2
2017-11-25T03:02:35.251Z,931.9
2017-11-25T03:03:37.510Z,931.2
2017-11-25T03:04:39.727Z,931.1
2017-11-25T03:05:42.065Z,931.1
2017-11-25T03:06:44.483Z,932
2017-11-25T03:07:48.131Z,931.1
2017-11-25T03:08:50.475Z,931.2
2017-11-25T03:09:52.721Z,927
2017-11-25T03:10:55.031Z,931.1
2017-11-25T03:11:57.393Z,931
2017-11-25T03:12:59.654Z,931
2017-11-25T03:14:01.874Z,930.8
2017-11-25T03:15:04.133Z,930.9
2017-11-25T03:16:06.744Z,930.8
2017-11-25T03:17:09.050Z,930.8
2017-11-25T03:18:12.694Z,930.9
2017-11-25T03:19:15.589Z,930.8
2017-11-25T03:20:17.898Z,930.8
2017-11-25T03:21:20.301Z,930.8
2017-11-25T03:22:23.179Z,930.7
2017-11-25T03:23:25.392Z,930.7
2017-11-25T03:24:27.819Z,930.6
2017-11-25T03:25:30.056Z,930.5
2017-11-25T03:26:32.420Z,930.5
2017-11-25T03:27:34.796Z,926.5
2017-11-25T03:28:38.565Z,930.5
2017-11-25T03:29:41.634Z,930.4
2017-11-25T03:30:44.508Z,930.4
2017-11-25T03:31:46.942Z,930.5
2017-11-25T03:32:50.342Z,930.4
2017-11-25T03:33:52.694Z,930.4
2017-11-25T03:34:55.601Z,931.2
2017-11-25T03:35:57.971Z,930.3
2017-11-25T03:37:00.541Z,930.2
2017-11-25T03:38:02.857Z,930.2
2017-11-25T03:39:06.491Z,930.3
2017-11-25T03:40:09.445Z,930.2
2017-11-25T03:41:11.842Z,930.1
2017-11-25T03:42:14.863Z,930.1
2017-11-25T03:43:18.417Z,930.1
2017-11-25T03:44:20.757Z,930.1
2017-11-25T03:45:23.772Z,930.1
2017-11-25T03:46:26.150Z,930.8
2017-11-25T03:47:29.720Z,929.9
2017-11-25T03:48:33.361Z,929.9
2017-11-25T03:49:36.993Z,929.8
2017-11-25T03:50:40.190Z,929.8
2017-11-25T03:51:43.207Z,929.7
2017-11-25T03:52:45.823Z,929.7
2017-11-25T03:53:48.763Z,929.6
2017-11-25T03:54:51.125Z,929.5
2017-11-25T03:55:53.529Z,929.5
2017-11-25T03:56:55.882Z,929.5
2017-11-25T03:57:58.294Z,929.5
2017-11-25T03:59:00.678Z,929.5
2017-11-25T04:00:05.211Z,929.4
2017-11-25T04:01:07.486Z,929.4
2017-11-25T04:02:10.925Z,929.4
2017-11-25T04:03:13.259Z,929.4
2017-11-25T04:04:15.615Z,929.3
2017-11-25T04:05:19.596Z,929.3
2017-11-25T04:06:22.533Z,929.3
2017-11-25T04:07:24.832Z,929.3
2017-11-25T04:08:27.152Z,929.3
2017-11-25T04:09:30.110Z,929.2
2017-11-25T04:10:35.654Z,929.2
2017-11-25T04:11:37.891Z,929.2
2017-11-25T04:12:40.215Z,929.2
2017-11-25T04:13:44.072Z,929.2
2017-11-25T04:14:46.540Z,930
2017-11-25T04:15:48.947Z,929.2
2017-11-25T04:16:51.322Z,929.2
2017-11-25T04:17:54.112Z,929
2017-11-25T04:18:56.400Z,924.4
2017-11-25T04:19:58.699Z,929
2017-11-25T04:21:02.957Z,929
2017-11-25T04:22:05.201Z,929
2017-11-25T04:23:09.224Z,924.4
2017-11-25T04:24:11.566Z,929
2017-11-25T04:25:13.852Z,929
2017-11-25T04:26:16.755Z,924.6
2017-11-25T04:27:19.714Z,929.7
2017-11-25T04:28:21.997Z,928.8
2017-11-25T04:29:26.009Z,928.8
2017-11-25T04:30:28.282Z,928.7
2017-11-25T04:31:33.990Z,928.7
2017-11-25T04:32:37.018Z,929.6
2017-11-25T04:33:39.296Z,928.6
2017-11-25T04:34:42.360Z,928.6
2017-11-25T04:35:44.578Z,928.6
2017-11-25T04:36:46.831Z,928.6
2017-11-25T04:37:49.205Z,928.5
2017-11-25T04:38:51.482Z,928.5
2017-11-25T04:39:53.611Z,928.5
2017-11-25T04:40:55.905Z,929.5
2017-11-25T04:41:59.570Z,928.5
2017-11-25T04:43:01.976Z,928.4
2017-11-25T04:44:04.217Z,928.5
2017-11-25T04:45:07.959Z,928.4
2017-11-25T04:46:10.289Z,928.4
2017-11-25T04:47:13.778Z,928.5
2017-11-25T04:48:16.113Z,928.4
2017-11-25T04:49:19.569Z,928.3
2017-11-25T04:50:21.979Z,929.2
2017-11-25T04:51:24.184Z,928.3
2017-11-25T04:52:28.544Z,928.2
2017-11-25T04:53:30.903Z,928.1
2017-11-25T04:54:33.217Z,928.1
2017-11-25T04:55:35.555Z,928.1
2017-11-25T04:56:37.815Z,928
2017-11-25T04:57:40.226Z,928
2017-11-25T04:58:42.584Z,927.8
2017-11-25T04:59:44.959Z,928.7
2017-11-25T05:00:47.326Z,927.9
2017-11-25T05:01:49.589Z,928.7
2017-11-25T05:02:53.278Z,927.9
2017-11-25T05:03:56.467Z,927.7
2017-11-25T05:04:59.690Z,928.5
2017-11-25T05:06:02.022Z,927.7
2017-11-25T05:07:04.195Z,927.6
2017-11-25T05:08:06.486Z,927.5
2017-11-25T05:09:09.352Z,927.4
2017-11-25T05:10:11.619Z,927.5
2017-11-25T05:11:13.918Z,927.4
2017-11-25T05:12:18.190Z,927.4
2017-11-25T05:13:23.978Z,927.3
2017-11-25T05:14:27.623Z,927.2
2017-11-25T05:15:29.875Z,927.1
2017-11-25T05:16:32.648Z,927.1
2017-11-25T05:17:34.910Z,927
2017-11-25T05:18:37.163Z,927
2017-11-25T05:19:39.411Z,926.9
2017-11-25T05:20:43.024Z,926.9
2017-11-25T05:21:45.927Z,927
2017-11-25T05:22:48.938Z,928
2017-11-25T05:23:53.331Z,927.1
2017-11-25T05:24:55.616Z,927
2017-11-25T05:25:57.981Z,927.9
2017-11-25T05:27:00.451Z,927
2017-11-25T05:28:02.808Z,927
2017-11-25T05:29:05.041Z,926.9
2017-11-25T05:30:07.380Z,926.9
2017-11-25T05:31:09.745Z,922.8
2017-11-25T05:32:12.170Z,926.8
2017-11-25T05:33:14.543Z,926.6
2017-11-25T05:34:18.283Z,926.7
2017-11-25T05:35:20.549Z,926.6
2017-11-25T05:36:22.849Z,927.5
2017-11-25T05:37:25.366Z,927.5
2017-11-25T05:38:27.675Z,926.5
2017-11-25T05:39:29.983Z,927.4
2017-11-25T05:40:32.366Z,926.5
2017-11-25T05:41:34.684Z,926.6
2017-11-25T05:42:37.227Z,925.5
2017-11-25T05:43:39.489Z,925.5
2017-11-25T05:44:43.265Z,927.4
2017-11-25T05:45:45.643Z,926.5
2017-11-25T05:46:47.943Z,926.5
2017-11-25T05:47:50.511Z,926.4
2017-11-25T05:48:54.000Z,927.3
2017-11-25T05:49:56.016Z,927.3
2017-11-25T05:50:58.330Z,926.3
2017-11-25T05:52:00.625Z,922
2017-11-25T05:53:03.551Z,927.3
2017-11-25T05:54:05.904Z,926.3
2017-11-25T05:55:10.284Z,926.3
2017-11-25T05:56:12.602Z,926.2
2017-11-25T05:57:15.615Z,926.2
2017-11-25T05:58:18.007Z,926.1
2017-11-25T05:59:20.195Z,926.2
2017-11-25T06:00:24.640Z,926.1
2017-11-25T06:01:26.914Z,926.1
2017-11-25T06:02:29.166Z,926.2
2017-11-25T06:03:31.452Z,927
2017-11-25T06:04:33.798Z,926.1
2017-11-25T06:05:37.455Z,926.1
2017-11-25T06:06:39.743Z,926
2017-11-25T06:07:42.152Z,926
2017-11-25T06:08:45.895Z,925.9
2017-11-25T06:09:48.153Z,926.8
2017-11-25T06:10:51.172Z,921.5
2017-11-25T06:11:53.512Z,926.8
2017-11-25T06:12:55.771Z,925.8
2017-11-25T06:13:58.926Z,925.8
2017-11-25T06:15:03.473Z,925.8
2017-11-25T06:16:07.080Z,925.7
2017-11-25T06:17:09.199Z,925.8
2017-11-25T06:18:11.520Z,925.9
2017-11-25T06:19:13.753Z,925.8
2017-11-25T06:20:16.007Z,925.7
2017-11-25T06:21:18.371Z,926.6
2017-11-25T06:22:20.622Z,925.6
2017-11-25T06:23:23.617Z,925.7
2017-11-25T06:24:25.959Z,925.7
2017-11-25T06:25:29.693Z,925.7
2017-11-25T06:26:34.012Z,925.7
2017-11-25T06:27:36.378Z,925.6
2017-11-25T06:28:38.644Z,925.6
2017-11-25T06:29:41.943Z,925.6
2017-11-25T06:30:44.260Z,925.7
2017-11-25T06:31:46.987Z,925.6
2017-11-25T06:32:49.296Z,921.7
2017-11-25T06:33:51.545Z,925.6
2017-11-25T06:34:54.652Z,925.6
2017-11-25T06:35:56.893Z,925.5
2017-11-25T06:37:00.712Z,925.4
2017-11-25T06:38:04.134Z,925.5
2017-11-25T06:39:06.366Z,925.3
2017-11-25T06:40:09.276Z,924.3
2017-11-25T06:41:11.592Z,925.4
2017-11-25T06:42:14.698Z,925.4
2017-11-25T06:43:17.771Z,925.5
2017-11-25T06:44:20.142Z,925.4
2017-11-25T06:45:22.442Z,926.2
2017-11-25T06:46:25.791Z,925.4
2017-11-25T06:47:29.444Z,925.4
2017-11-25T06:48:31.735Z,925.4
2017-11-25T06:49:34.748Z,925.7
2017-11-25T06:50:37.183Z,926.3
2017-11-25T06:51:40.475Z,925.4
2017-11-25T06:52:42.723Z,925.3
2017-11-25T06:53:45.008Z,926.2
2017-11-25T06:54:47.383Z,926.2
2017-11-25T06:55:49.742Z,925.3
2017-11-25T06:56:52.047Z,925.3
2017-11-25T06:57:55.631Z,925.4
2017-11-25T06:58:57.936Z,925.4
2017-11-25T07:00:00.728Z,921.7
2017-11-25T07:01:03.382Z,925.4
2017-11-25T07:02:05.695Z,925.3
2017-11-25T07:03:09.402Z,925.4
2017-11-25T07:04:12.619Z,925.4
2017-11-25T07:05:15.048Z,926.2
2017-11-25T07:06:17.476Z,925.3
2017-11-25T07:07:20.907Z,925.3
2017-11-25T07:08:25.183Z,925.2
2017-11-25T07:09:28.204Z,925.2
2017-11-25T07:10:32.427Z,925.2
2017-11-25T07:11:34.650Z,925.2
2017-11-25T07:12:37.036Z,926
2017-11-25T07:13:40.201Z,925.3
2017-11-25T07:14:42.463Z,925.4
2017-11-25T07:15:44.598Z,926.2
2017-11-25T07:16:46.936Z,925.3
2017-11-25T07:17:49.284Z,925.4
2017-11-25T07:18:54.364Z,925.3
2017-11-25T07:19:56.703Z,925.3
2017-11-25T07:20:59.011Z,926.2
2017-11-25T07:22:02.228Z,925.3
2017-11-25T07:23:05.400Z,926.1
2017-11-25T07:24:07.484Z,925.2
2017-11-25T07:25:09.788Z,925.2
2017-11-25T07:26:12.104Z,926.1
2017-11-25T07:27:14.289Z,925.2
2017-11-25T07:28:16.600Z,926
2017-11-25T07:29:20.948Z,925.2
2017-11-25T07:30:24.602Z,926.1
2017-11-25T07:31:26.865Z,925.2
2017-11-25T07:32:30.358Z,925.3
2017-11-25T07:33:33.334Z,925.4
2017-11-25T07:34:35.714Z,925.3
2017-11-25T07:35:38.707Z,925.3
2017-11-25T07:36:41.685Z,925.3
2017-11-25T07:37:44.081Z,926.1
2017-11-25T07:38:48.442Z,926.1
2017-11-25T07:39:53.071Z,925.3
2017-11-25T07:40:56.666Z,925.3
2017-11-25T07:41:59.041Z,925.4
2017-11-25T07:43:01.941Z,926.2
2017-11-25T07:44:04.253Z,926.2
2017-11-25T07:45:06.560Z,925.5
2017-11-25T07:46:09.566Z,925.4
2017-11-25T07:47:11.851Z,926.2
2017-11-25T07:48:14.581Z,925.5
2017-11-25T07:49:17.648Z,926.3
2017-11-25T07:50:22.650Z,925.4
2017-11-25T07:51:24.954Z,925.4
2017-11-25T07:52:27.244Z,925.4
2017-11-25T07:53:29.570Z,925.4
2017-11-25T07:54:31.808Z,925.5
2017-11-25T07:55:34.158Z,926.4
2017-11-25T07:56:36.448Z,925.4
2017-11-25T07:57:40.842Z,925.5
2017-11-25T07:58:43.116Z,925.5
2017-11-25T07:59:45.514Z,925.4
2017-11-25T08:00:49.297Z,925.4
2017-11-25T08:01:51.589Z,925.4
2017-11-25T08:02:53.921Z,925.5
2017-11-25T08:03:56.249Z,921.5
2017-11-25T08:04:58.530Z,925.5
2017-11-25T08:06:00.868Z,925.5
2017-11-25T08:07:03.188Z,926.3
2017-11-25T08:08:05.554Z,925.5
2017-11-25T08:09:08.187Z,925.6
2017-11-25T08:10:10.413Z,925.6
2017-11-25T08:11:15.068Z,925.5
2017-11-25T08:12:17.389Z,925.6
2017-11-25T08:13:20.538Z,925.5
2017-11-25T08:14:22.880Z,925.5
2017-11-25T08:15:25.201Z,925.5
2017-11-25T08:16:28.378Z,925.5
2017-11-25T08:17:30.700Z,925.5
2017-11-25T08:18:33.187Z,926.3
2017-11-25T08:19:35.618Z,925.5
2017-11-25T08:20:38.020Z,925.6
2017-11-25T08:21:41.642Z,925.6
2017-11-25T08:22:43.958Z,925.6
2017-11-25T08:23:46.342Z,926.3
2017-11-25T08:24:48.726Z,921.7
2017-11-25T08:25:50.933Z,925.6
2017-11-25T08:26:53.329Z,925.6
2017-11-25T08:27:55.564Z,921.9
2017-11-25T08:28:57.842Z,926.6
2017-11-25T08:30:00.203Z,925.7
2017-11-25T08:31:03.605Z,926.7
2017-11-25T08:32:07.376Z,925.9
2017-11-25T08:33:09.791Z,925.9
2017-11-25T08:34:12.151Z,925.9
2017-11-25T08:35:14.746Z,926
2017-11-25T08:36:16.871Z,926.1
2017-11-25T08:37:19.215Z,926.1
2017-11-25T08:38:22.816Z,926.1
2017-11-25T08:39:25.102Z,926
2017-11-25T08:40:29.531Z,926.1
2017-11-25T08:41:31.854Z,925.2
2017-11-25T08:42:36.813Z,927
2017-11-25T08:43:39.131Z,926.2
2017-11-25T08:44:42.472Z,926.2
2017-11-25T08:45:46.822Z,926.2
2017-11-25T08:46:49.103Z,926.3
2017-11-25T08:47:51.430Z,926.3
2017-11-25T08:48:55.559Z,927.1
2017-11-25T08:49:58.667Z,926.2
2017-11-25T08:51:00.975Z,926.3
2017-11-25T08:52:04.542Z,926.2
2017-11-25T08:53:09.282Z,927.1
2017-11-25T08:54:12.795Z,926.3
2017-11-25T08:55:16.460Z,926.3
2017-11-25T08:56:18.814Z,922.3
2017-11-25T08:57:22.155Z,926.4
2017-11-25T08:58:24.441Z,926.5
2017-11-25T08:59:27.501Z,926.4
2017-11-25T09:00:29.861Z,926.5
2017-11-25T09:01:32.293Z,926.6
2017-11-25T09:02:36.087Z,926.5
2017-11-25T09:03:40.442Z,927.3
2017-11-25T09:04:42.728Z,926.7
2017-11-25T09:05:45.009Z,926.7
2017-11-25T09:06:47.340Z,927.5
2017-11-25T09:07:49.641Z,927.5
2017-11-25T09:08:51.987Z,926.8
2017-11-25T09:09:54.357Z,926.8
2017-11-25T09:10:56.629Z,926.9
2017-11-25T09:11:59.073Z,927
2017-11-25T09:13:01.922Z,927.8
2017-11-25T09:14:06.193Z,927
2017-11-25T09:15:09.894Z,927
2017-11-25T09:16:12.152Z,927
2017-11-25T09:17:16.243Z,927.9
2017-11-25T09:18:18.620Z,927.3
2017-11-25T09:19:20.935Z,927.3
2017-11-25T09:20:23.438Z,927.3
2017-11-25T09:21:25.823Z,927.3
2017-11-25T09:22:29.804Z,927.2
2017-11-25T09:23:32.139Z,923.5
2017-11-25T09:24:38.496Z,927.3
2017-11-25T09:25:40.772Z,927.2
2017-11-25T09:26:44.457Z,927.5
2017-11-25T09:27:46.954Z,927.4
2017-11-25T09:28:49.683Z,927.4
2017-11-25T09:29:52.059Z,927.4
2017-11-25T09:30:56.599Z,927.4
2017-11-25T09:31:58.875Z,927.5
2017-11-25T09:33:01.114Z,927.5
2017-11-25T09:34:05.716Z,927.5
2017-11-25T09:35:09.352Z,927.5
2017-11-25T09:36:13.200Z,927.5
2017-11-25T09:37:16.842Z,927.6
2017-11-25T09:38:19.689Z,927.6
2017-11-25T09:39:22.074Z,927.6
2017-11-25T09:40:24.357Z,927.5
2017-11-25T09:41:26.745Z,927.6
2017-11-25T09:42:29.114Z,927.6
2017-11-25T09:43:32.648Z,927.5
2017-11-25T09:44:35.412Z,924.1
2017-11-25T09:45:39.739Z,927.4
2017-11-25T09:46:42.897Z,924
2017-11-25T09:47:45.312Z,927.6
2017-11-25T09:48:47.883Z,927.6
2017-11-25T09:49:50.269Z,927.5
2017-11-25T09:50:52.632Z,927.5
2017-11-25T09:51:54.969Z,927.7
2017-11-25T09:52:57.422Z,927.5
2017-11-25T09:53:59.864Z,927.7
2017-11-25T09:55:03.946Z,928.4
2017-11-25T09:56:08.994Z,927.6
2017-11-25T09:57:11.300Z,927.6
2017-11-25T09:58:14.955Z,927.7
2017-11-25T09:59:17.146Z,927.8
2017-11-25T10:00:20.106Z,927.8
2017-11-25T10:01:24.467Z,927.8
2017-11-25T10:02:27.423Z,928.7
2017-11-25T10:03:29.770Z,927.8
2017-11-25T10:04:33.329Z,927.9
2017-11-25T10:05:35.654Z,927.8
2017-11-25T10:06:40.806Z,927.9
2017-11-25T10:07:43.611Z,928.8
2017-11-25T10:08:46.325Z,928
2017-11-25T10:09:49.772Z,928
2017-11-25T10:10:52.856Z,928
2017-11-25T10:11:57.171Z,928.9
2017-11-25T10:12:59.659Z,928.1
2017-11-25T10:14:02.001Z,928.9
2017-11-25T10:15:04.363Z,928.8
2017-11-25T10:16:06.698Z,928.2
2017-11-25T10:17:10.935Z,928.2
2017-11-25T10:18:13.285Z,928.3
2017-11-25T10:19:15.692Z,929
2017-11-25T10:20:18.052Z,928.3
2017-11-25T10:21:20.349Z,928.3
2017-11-25T10:22:22.694Z,928.3
2017-11-25T10:23:25.011Z,928.4
2017-11-25T10:24:27.316Z,928.4
2017-11-25T10:25:29.683Z,928.4
2017-11-25T10:26:32.127Z,928.4
2017-11-25T10:27:35.910Z,928.4
2017-11-25T10:28:38.224Z,928.4
2017-11-25T10:29:40.548Z,928.5
2017-11-25T10:30:42.991Z,928.5
2017-11-25T10:31:45.409Z,929.3
2017-11-25T10:32:47.916Z,928.4
2017-11-25T10:33:50.267Z,928.4
2017-11-25T10:34:52.678Z,928.5
2017-11-25T10:35:55.168Z,928.4
2017-11-25T10:36:57.465Z,928.5
2017-11-25T10:38:01.068Z,928.5
2017-11-25T10:39:03.448Z,928.6
2017-11-25T10:40:06.038Z,928.5
2017-11-25T10:41:09.370Z,928.6
2017-11-25T10:42:11.848Z,928.5
2017-11-25T10:43:14.929Z,928.7
2017-11-25T10:44:17.269Z,928.7
2017-11-25T10:45:20.317Z,928.7
2017-11-25T10:46:23.329Z,928.8
2017-11-25T10:47:26.638Z,929.6
2017-11-25T10:48:32.935Z,928.8
2017-11-25T10:49:36.030Z,928.9
2017-11-25T10:50:38.415Z,928.9
2017-11-25T10:51:42.671Z,925.1
2017-11-25T10:52:45.528Z,929
2017-11-25T10:53:49.757Z,929
2017-11-25T10:54:53.386Z,929.1
2017-11-25T10:55:58.904Z,929.1
2017-11-25T10:57:02.029Z,929.9
2017-11-25T10:58:04.398Z,929.1
2017-11-25T10:59:11.677Z,929.2
2017-11-25T11:00:16.181Z,929.2
2017-11-25T11:01:18.329Z,930.1
2017-11-25T11:02:24.678Z,929.3
2017-11-25T11:03:29.550Z,929.3
2017-11-25T11:04:36.091Z,929.3
2017-11-25T11:05:40.931Z,929.3
2017-11-25T11:06:46.385Z,929.4
2017-11-25T11:07:50.828Z,929.3
2017-11-25T11:08:55.147Z,929.5
2017-11-25T11:09:58.704Z,929.5
2017-11-25T11:11:03.805Z,930.3
2017-11-25T11:12:06.149Z,929.5
2017-11-25T11:13:08.510Z,929.5
2017-11-25T11:14:12.737Z,930.4
2017-11-25T11:15:16.273Z,930.5
2017-11-25T11:16:19.318Z,929.7
2017-11-25T11:17:25.774Z,929.7
2017-11-25T11:18:29.482Z,929.6
2017-11-25T11:19:34.708Z,930.5
2017-11-25T11:20:40.169Z,929.8
2017-11-25T11:21:43.076Z,929.8
2017-11-25T11:22:47.681Z,929.8
2017-11-25T11:23:51.552Z,929.8
2017-11-25T11:24:53.749Z,929.8
2017-11-25T11:25:56.590Z,930
2017-11-25T11:26:59.998Z,929.9
2017-11-25T11:28:03.717Z,930
2017-11-25T11:29:06.045Z,930
2017-11-25T11:30:08.878Z,929.9
2017-11-25T11:31:14.040Z,930.8
2017-11-25T11:32:17.602Z,930.1
2017-11-25T11:33:19.960Z,930.1
2017-11-25T11:34:22.342Z,930.9
2017-11-25T11:35:24.653Z,930.2
2017-11-25T11:36:27.706Z,930.2
2017-11-25T11:37:30.572Z,931.1
2017-11-25T11:38:33.521Z,930.3
2017-11-25T11:39:35.895Z,930.2
2017-11-25T11:40:39.841Z,930.4
2017-11-25T11:41:44.638Z,930.3
2017-11-25T11:42:48.963Z,930.3
2017-11-25T11:43:51.881Z,930.3
2017-11-25T11:44:54.241Z,930.3
2017-11-25T11:45:59.933Z,930.4
2017-11-25T11:47:02.230Z,931.3
2017-11-25T11:48:05.349Z,930.5
2017-11-25T11:49:08.260Z,931.4
2017-11-25T11:50:10.907Z,931.5
2017-11-25T11:51:14.942Z,930.7
2017-11-25T11:52:19.892Z,930.6
2017-11-25T11:53:23.474Z,930.8
2017-11-25T11:54:27.266Z,929.7
2017-11-25T11:55:30.416Z,930.8
2017-11-25T11:56:34.958Z,931.6
2017-11-25T11:57:37.379Z,931.7
2017-11-25T11:58:40.421Z,930.9
2017-11-25T11:59:45.780Z,931
2017-11-25T12:00:48.673Z,931
2017-11-25T12:01:51.864Z,931
2017-11-25T12:02:57.131Z,931
2017-11-25T12:03:59.478Z,931.1
2017-11-25T12:05:01.812Z,931.1
2017-11-25T12:06:04.768Z,931.1
2017-11-25T12:07:06.985Z,931.2
2017-11-25T12:08:10.719Z,931.1
2017-11-25T12:09:12.991Z,931.2
2017-11-25T12:10:16.655Z,931.2
2017-11-25T12:11:20.629Z,931.3
2017-11-25T12:12:24.964Z,931.3
2017-11-25T12:13:32.363Z,931.3
2017-11-25T12:14:34.805Z,932.1
2017-11-25T12:15:37.265Z,932.1
2017-11-25T12:16:40.281Z,931.3
2017-11-25T12:17:42.703Z,931.2
2017-11-25T12:18:45.822Z,931.4
2017-11-25T12:19:48.200Z,931.4
2017-11-25T12:20:52.159Z,931.4
2017-11-25T12:21:55.805Z,932.2
2017-11-25T12:22:58.785Z,931.3
2017-11-25T12:24:04.911Z,931.3
2017-11-25T12:25:07.986Z,932.2
2017-11-25T12:26:13.220Z,931.4
2017-11-25T12:27:16.096Z,931.3
2017-11-25T12:28:20.164Z,931.3
2017-11-25T12:29:25.595Z,931.4
2017-11-25T12:30:28.790Z,931.4
2017-11-25T12:31:31.169Z,931.4
2017-11-25T12:32:33.553Z,931.4
2017-11-25T12:33:36.028Z,931.4
2017-11-25T12:34:39.768Z,931.4
2017-11-25T12:35:42.172Z,931.5
2017-11-25T12:36:44.577Z,931.4
2017-11-25T12:37:46.972Z,931.4
2017-11-25T12:38:49.295Z,931.5
2017-11-25T12:39:51.699Z,931.5
2017-11-25T12:40:54.039Z,931.5
2017-11-25T12:41:56.419Z,931.5
2017-11-25T12:42:58.726Z,931.6
2017-11-25T12:44:01.199Z,931.5
2017-11-25T12:45:04.916Z,931.5
2017-11-25T12:46:07.368Z,931.5
2017-11-25T12:47:09.651Z,931.6
2017-11-25T12:48:12.048Z,931.6
2017-11-25T12:49:14.541Z,932.4
2017-11-25T12:50:16.993Z,931.6
2017-11-25T12:51:19.368Z,931.7
2017-11-25T12:52:21.846Z,931.6
2017-11-25T12:53:24.272Z,931.6
2017-11-25T12:54:27.172Z,931.6
2017-11-25T12:55:30.880Z,932.5
2017-11-25T12:56:33.272Z,931.6
2017-11-25T12:57:35.608Z,932.5
2017-11-25T12:58:38.029Z,931.7
2017-11-25T12:59:40.971Z,932.5
2017-11-25T13:00:43.259Z,931.6
2017-11-25T13:01:45.759Z,927.5
2017-11-25T13:02:48.090Z,931.6
2017-11-25T13:03:50.419Z,931.6
2017-11-25T13:04:52.789Z,927.4
2017-11-25T13:05:56.342Z,931.7
2017-11-25T13:06:58.647Z,932.6
2017-11-25T13:08:00.988Z,931.8
2017-11-25T13:09:04.135Z,931.7
2017-11-25T13:10:06.545Z,931.8
2017-11-25T13:11:08.856Z,932.7
2017-11-25T13:12:11.807Z,931.9
2017-11-25T13:13:13.899Z,932
2017-11-25T13:14:16.181Z,931.8
2017-11-25T13:15:18.620Z,932.8
2017-11-25T13:16:22.183Z,932
2017-11-25T13:17:24.514Z,932.9
2017-11-25T13:18:27.595Z,932.9
2017-11-25T13:19:31.264Z,932.9
2017-11-25T13:20:34.638Z,932
2017-11-25T13:21:36.973Z,932.2
2017-11-25T13:22:41.896Z,932.1
2017-11-25T13:23:44.311Z,932.2
2017-11-25T13:24:46.630Z,933
2017-11-25T13:25:48.935Z,932.2
2017-11-25T13:26:53.681Z,933.1
2017-11-25T13:27:56.058Z,932.3
2017-11-25T13:28:59.123Z,932.2
2017-11-25T13:30:01.453Z,932.2
2017-11-25T13:31:05.537Z,932.2
2017-11-25T13:32:08.903Z,932.2
2017-11-25T13:33:11.856Z,932.3
2017-11-25T13:34:14.878Z,932.3